Time;durP1;ratioP1;P1;durP2;ratioP2;P2;SDS_P1;SDS_P2;PMS_P1;PMS_P2;Temp;Humidity;BMP_temperature;BMP_pressure;BME280_temperature;BME280_humidity;BME280_pressure;Samples;Min_cycle;Max_cycle;Signal;HPM_P1;HPM_P2
2021/06/07 00:00:46;;;;;;;2.97;2.10;;;12.70;99.90;;;;;;5094356;28;20228;-90
2021/06/07 00:03:12;;;;;;;2.70;1.80;;;12.70;99.90;;;;;;5079657;28;20651;-91
2021/06/07 00:05:38;;;;;;;3.63;1.53;;;12.70;99.90;;;;;;5078801;28;20274;-89
2021/06/07 00:08:04;;;;;;;3.93;1.70;;;12.60;99.90;;;;;;5062311;28;20205;-90
2021/06/07 00:10:31;;;;;;;2.20;1.83;;;12.70;99.90;;;;;;5077998;28;20224;-89
2021/06/07 00:12:57;;;;;;;3.03;1.83;;;12.70;99.90;;;;;;5078140;28;20205;-89
2021/06/07 00:15:25;;;;;;;2.00;1.80;;;12.70;99.90;;;;;;5061641;28;20176;-91
2021/06/07 00:17:50;;;;;;;2.90;2.20;;;12.70;99.90;;;;;;5064891;28;20180;-91
2021/06/07 00:20:39;;;;;;;4.10;2.67;;;12.70;99.90;;;;;;5061423;28;20213;-89
2021/06/07 00:23:08;;;;;;;4.63;2.20;;;12.60;99.90;;;;;;5080466;28;20217;-90
2021/06/07 00:25:34;;;;;;;3.60;2.73;;;12.50;99.90;;;;;;5077545;28;20958;-89
2021/06/07 00:28:00;;;;;;;4.17;2.17;;;12.50;99.90;;;;;;5061162;28;20228;-88
2021/06/07 00:30:26;;;;;;;2.53;1.70;;;12.40;99.90;;;;;;5060854;28;20223;-89
2021/06/07 00:32:52;;;;;;;6.07;2.30;;;12.30;99.90;;;;;;5047612;28;20654;-89
2021/06/07 00:35:23;;;;;;;3.20;2.07;;;12.20;99.90;;;;;;5044070;28;20759;-91
2021/06/07 00:37:49;;;;;;;3.53;2.10;;;12.10;99.90;;;;;;5075975;28;20232;-87
2021/06/07 00:40:17;;;;;;;3.60;2.17;;;12.10;99.90;;;;;;5077494;28;20235;-89
2021/06/07 00:42:43;;;;;;;4.60;2.10;;;12.10;99.90;;;;;;5042659;28;20307;-87
2021/06/07 00:45:13;;;;;;;3.60;2.60;;;12.00;99.90;;;;;;5079100;28;20722;-88
2021/06/07 00:47:40;;;;;;;7.40;2.17;;;12.00;99.90;;;;;;5079628;28;20753;-88
2021/06/07 00:50:12;;;;;;;3.43;2.50;;;12.00;99.90;;;;;;5061760;28;20224;-88
2021/06/07 00:53:00;;;;;;;3.57;2.50;;;12.00;99.90;;;;;;5063991;28;20242;-89
2021/06/07 00:55:27;;;;;;;3.00;1.93;;;12.00;99.90;;;;;;5078903;28;20212;-88
2021/06/07 00:57:54;;;;;;;2.73;2.17;;;12.10;99.90;;;;;;5060818;28;20688;-88
2021/06/07 01:00:22;;;;;;;3.00;2.43;;;12.10;99.90;;;;;;5062145;28;20215;-89
2021/06/07 01:02:47;;;;;;;2.20;1.67;;;12.00;99.90;;;;;;5098731;28;20537;-88
2021/06/07 01:05:14;;;;;;;5.60;2.53;;;11.90;99.90;;;;;;5059495;28;20672;-89
2021/06/07 01:07:40;;;;;;;3.03;2.43;;;11.90;99.90;;;;;;5061745;28;20211;-89
2021/06/07 01:10:08;;;;;;;2.90;2.53;;;11.80;99.90;;;;;;5060384;28;20546;-88
2021/06/07 01:12:34;;;;;;;4.87;1.80;;;11.80;99.90;;;;;;5086104;28;20188;-88
2021/06/07 01:15:00;;;;;;;2.77;1.93;;;11.90;99.90;;;;;;5061409;28;20198;-88
2021/06/07 01:17:27;;;;;;;3.97;1.67;;;11.80;99.90;;;;;;5060525;28;20290;-88
2021/06/07 01:19:53;;;;;;;2.23;1.97;;;11.80;99.90;;;;;;5062996;28;20610;-89
2021/06/07 01:22:19;;;;;;;2.17;1.77;;;11.80;99.90;;;;;;5062582;28;20290;-89
2021/06/07 01:24:46;;;;;;;6.90;2.50;;;11.80;99.90;;;;;;5063044;28;20217;-88
2021/06/07 01:27:12;;;;;;;2.13;1.93;;;11.80;99.90;;;;;;5063262;28;20185;-89
2021/06/07 01:29:38;;;;;;;2.87;1.87;;;11.80;99.90;;;;;;5060928;28;20243;-89
2021/06/07 01:32:05;;;;;;;4.77;2.83;;;11.80;99.90;;;;;;5060601;28;20204;-88
2021/06/07 01:34:31;;;;;;;5.03;2.63;;;11.80;99.90;;;;;;5061170;28;20247;-88
2021/06/07 01:36:58;;;;;;;3.33;2.03;;;11.80;99.90;;;;;;5078868;28;20207;-89
2021/06/07 01:39:27;;;;;;;3.40;1.83;;;11.80;99.90;;;;;;5093567;28;20180;-88
2021/06/07 01:41:54;;;;;;;6.07;2.40;;;11.80;99.90;;;;;;5046115;28;20692;-88
2021/06/07 01:44:20;;;;;;;2.43;1.83;;;11.80;99.90;;;;;;5060289;28;20718;-88
2021/06/07 01:46:45;;;;;;;3.53;2.37;;;11.80;99.90;;;;;;5078981;28;20223;-88
2021/06/07 01:49:11;;;;;;;3.00;2.70;;;11.80;99.90;;;;;;5045479;28;20595;-88
2021/06/07 01:51:37;;;;;;;8.33;3.10;;;11.80;99.90;;;;;;5046396;28;20715;-89
2021/06/07 01:54:04;;;;;;;7.43;3.07;;;11.80;99.90;;;;;;5078696;28;20203;-88
2021/06/07 01:56:30;;;;;;;2.73;2.40;;;11.80;99.90;;;;;;5044128;28;20307;-88
2021/06/07 01:58:56;;;;;;;4.00;3.43;;;11.80;99.90;;;;;;5061855;28;20318;-88
2021/06/07 02:01:22;;;;;;;2.27;1.93;;;11.90;99.90;;;;;;5059033;28;20230;-88
2021/06/07 02:03:49;;;;;;;3.67;3.10;;;11.90;99.90;;;;;;5060858;28;20216;-90
2021/06/07 02:06:19;;;;;;;5.10;3.27;;;11.80;99.90;;;;;;5080683;28;20191;-88
2021/06/07 02:08:45;;;;;;;3.43;3.13;;;11.70;99.90;;;;;;5077395;28;20230;-90
2021/06/07 02:11:14;;;;;;;4.17;3.13;;;11.70;99.90;;;;;;5060791;28;20211;-88
2021/06/07 02:13:40;;;;;;;5.20;3.10;;;11.70;99.90;;;;;;5076910;28;20212;-88
2021/06/07 02:16:16;;;;;;;3.43;2.20;;;11.70;99.90;;;;;;5059805;28;20211;-91
2021/06/07 02:18:41;;;;;;;4.23;2.50;;;11.70;99.90;;;;;;5077866;28;20232;-88
2021/06/07 02:21:09;;;;;;;4.37;2.50;;;11.70;99.90;;;;;;5078351;28;20211;-88
2021/06/07 02:23:36;;;;;;;3.77;2.80;;;11.70;99.90;;;;;;5058134;28;20698;-91
2021/06/07 02:26:02;;;;;;;4.40;2.40;;;11.70;99.90;;;;;;5060859;28;20208;-88
2021/06/07 02:28:28;;;;;;;5.40;3.50;;;11.60;99.90;;;;;;5092337;28;20219;-88
2021/06/07 02:30:55;;;;;;;2.90;2.40;;;11.60;99.90;;;;;;5061095;28;20214;-89
2021/06/07 02:33:21;;;;;;;2.87;2.30;;;11.70;99.90;;;;;;5046601;28;20184;-90
2021/06/07 02:35:46;;;;;;;4.53;2.47;;;11.70;99.90;;;;;;5060418;28;20211;-89
2021/06/07 02:38:13;;;;;;;8.33;2.57;;;11.80;99.90;;;;;;5059707;28;20570;-89
2021/06/07 02:40:42;;;;;;;2.43;1.97;;;11.80;99.90;;;;;;5059538;28;20768;-89
2021/06/07 02:43:08;;;;;;;3.37;2.90;;;11.80;99.90;;;;;;5060713;28;20294;-88
2021/06/07 02:45:34;;;;;;;2.43;2.03;;;11.80;99.90;;;;;;5045286;28;20617;-90
2021/06/07 02:48:03;;;;;;;2.70;2.43;;;11.70;99.90;;;;;;5056630;28;20226;-88
2021/06/07 02:50:33;;;;;;;3.67;2.47;;;11.70;99.90;;;;;;5091477;28;20308;-89
2021/06/07 02:52:59;;;;;;;3.80;2.13;;;11.60;99.90;;;;;;5073602;28;20603;-89
2021/06/07 02:55:29;;;;;;;3.87;2.93;;;11.70;99.90;;;;;;5071982;28;20217;-89
2021/06/07 02:57:56;;;;;;;3.13;2.30;;;11.70;99.90;;;;;;5073079;28;20220;-88
2021/06/07 03:00:28;;;;;;;3.30;2.70;;;11.70;99.90;;;;;;5040516;28;20299;-89
2021/06/07 03:02:55;;;;;;;5.37;2.80;;;11.70;99.90;;;;;;5075317;28;21274;-88
2021/06/07 03:05:21;;;;;;;3.53;2.93;;;11.80;99.90;;;;;;5089230;28;20324;-90
2021/06/07 03:07:47;;;;;;;2.67;2.27;;;11.70;99.90;;;;;;5041670;28;20292;-89
2021/06/07 03:10:13;;;;;;;4.37;2.60;;;11.70;99.90;;;;;;5039996;28;20218;-89
2021/06/07 03:12:40;;;;;;;5.57;2.43;;;11.80;99.90;;;;;;5053849;28;20205;-88
2021/06/07 03:15:07;;;;;;;2.87;2.60;;;11.80;99.90;;;;;;5057803;28;20268;-89
2021/06/07 03:17:33;;;;;;;2.70;2.43;;;11.80;99.90;;;;;;5074242;28;20244;-89
2021/06/07 03:19:59;;;;;;;5.23;2.90;;;11.80;99.90;;;;;;5040797;28;20233;-89
2021/06/07 03:22:25;;;;;;;3.73;2.63;;;11.80;99.90;;;;;;5040458;28;20216;-89
2021/06/07 03:24:52;;;;;;;3.47;1.70;;;11.80;99.90;;;;;;5056728;28;20299;-88
2021/06/07 03:27:18;;;;;;;2.33;2.10;;;11.80;99.90;;;;;;5059228;28;20197;-88
2021/06/07 03:29:45;;;;;;;2.97;2.07;;;11.60;99.90;;;;;;5038571;28;20291;-89
2021/06/07 03:32:12;;;;;;;5.03;2.23;;;11.50;99.90;;;;;;5072294;28;20779;-90
2021/06/07 03:34:38;;;;;;;2.30;2.10;;;11.50;99.90;;;;;;5055825;28;20255;-88
2021/06/07 03:37:05;;;;;;;2.00;1.53;;;11.50;99.90;;;;;;5056126;28;20216;-89
2021/06/07 03:39:32;;;;;;;2.70;2.07;;;11.60;99.90;;;;;;5073071;28;20242;-88
2021/06/07 03:41:58;;;;;;;4.63;2.93;;;11.60;99.90;;;;;;5055540;28;20209;-88
2021/06/07 03:44:23;;;;;;;6.77;2.83;;;11.60;99.90;;;;;;5040768;28;20232;-90
2021/06/07 03:46:50;;;;;;;4.47;2.93;;;11.70;99.90;;;;;;5057386;28;20232;-89
2021/06/07 03:49:16;;;;;;;4.47;2.77;;;11.80;99.90;;;;;;5054096;28;20273;-88
2021/06/07 03:51:41;;;;;;;4.73;2.40;;;11.90;99.90;;;;;;5075948;28;20297;-89
2021/06/07 03:54:08;;;;;;;6.10;2.40;;;11.90;99.90;;;;;;5073895;28;20935;-89
2021/06/07 03:56:33;;;;;;;3.60;2.90;;;11.90;99.90;;;;;;5056383;28;20205;-89
2021/06/07 03:58:59;;;;;;;3.27;2.07;;;11.90;99.90;;;;;;5039299;28;20705;-89
2021/06/07 04:01:25;;;;;;;2.70;2.50;;;11.90;99.90;;;;;;5039075;28;20603;-89
2021/06/07 04:03:51;;;;;;;7.23;3.53;;;12.00;99.90;;;;;;5072278;28;20220;-91
2021/06/07 04:06:17;;;;;;;3.37;2.57;;;12.00;99.90;;;;;;5078408;28;20637;-89
2021/06/07 04:08:43;;;;;;;3.50;2.80;;;12.10;99.90;;;;;;5044394;28;20222;-91
2021/06/07 04:11:10;;;;;;;3.23;2.90;;;12.10;99.90;;;;;;5062026;28;20635;-89
2021/06/07 04:13:37;;;;;;;4.73;3.20;;;12.10;99.90;;;;;;5059428;28;20237;-88
2021/06/07 04:16:03;;;;;;;7.63;4.63;;;12.20;99.90;;;;;;5077800;28;20219;-87
2021/06/07 04:18:29;;;;;;;3.67;3.00;;;12.30;99.90;;;;;;5063511;28;20182;-87
2021/06/07 04:20:55;;;;;;;4.13;3.33;;;12.40;99.90;;;;;;5063778;28;20726;-88
2021/06/07 04:23:21;;;;;;;3.77;2.73;;;12.40;99.90;;;;;;5059021;28;20216;-87
2021/06/07 04:25:47;;;;;;;5.67;2.80;;;12.60;99.90;;;;;;5057615;28;20628;-89
2021/06/07 04:28:13;;;;;;;3.07;2.77;;;12.70;99.90;;;;;;5059844;28;20586;-86
2021/06/07 04:30:39;;;;;;;3.27;2.80;;;12.70;99.90;;;;;;5058034;28;20196;-87
2021/06/07 04:33:05;;;;;;;2.80;2.53;;;12.70;99.90;;;;;;5060247;28;20221;-87
2021/06/07 04:35:32;;;;;;;3.97;2.80;;;12.80;99.90;;;;;;5074622;28;20657;-88
2021/06/07 04:37:58;;;;;;;5.47;3.67;;;12.90;99.90;;;;;;5042929;28;20212;-87
2021/06/07 04:40:28;;;;;;;8.03;2.93;;;12.90;99.90;;;;;;5055915;28;20212;-87
2021/06/07 04:42:55;;;;;;;3.30;3.00;;;13.00;99.90;;;;;;5077721;28;20237;-90
2021/06/07 04:45:22;;;;;;;4.70;2.60;;;13.10;99.90;;;;;;5075369;28;20181;-87
2021/06/07 04:47:48;;;;;;;4.50;3.10;;;13.20;99.90;;;;;;5084558;28;20213;-86
2021/06/07 04:50:17;;;;;;;7.00;3.43;;;13.20;99.90;;;;;;5061033;28;20333;-90
2021/06/07 04:53:01;;;;;;;5.07;2.40;;;13.30;99.90;;;;;;5081056;28;20243;-87
2021/06/07 04:55:45;;;;;;;4.70;3.47;;;13.40;99.90;;;;;;5062794;28;20212;-89
2021/06/07 04:58:17;;;;;;;3.73;2.33;;;13.60;99.90;;;;;;5097143;28;20212;-87
2021/06/07 05:00:49;;;;;;;3.27;2.37;;;13.70;99.90;;;;;;5079236;28;20219;-87
2021/06/07 05:03:16;;;;;;;3.00;2.80;;;13.80;99.90;;;;;;5079954;28;20621;-87
2021/06/07 05:05:42;;;;;;;3.00;2.53;;;13.90;99.90;;;;;;5075824;28;20222;-88
2021/06/07 05:08:08;;;;;;;3.63;2.37;;;14.00;99.90;;;;;;5078466;28;20684;-88
2021/06/07 05:10:34;;;;;;;3.93;2.67;;;14.10;99.90;;;;;;5063107;28;20207;-88
2021/06/07 05:13:00;;;;;;;3.37;2.70;;;14.30;99.90;;;;;;5080685;28;20223;-88
2021/06/07 05:15:26;;;;;;;3.13;1.93;;;14.60;99.90;;;;;;5064115;28;20180;-87
2021/06/07 05:17:52;;;;;;;3.47;2.17;;;15.90;99.90;;;;;;5062422;28;20209;-88
2021/06/07 05:20:21;;;;;;;3.40;2.33;;;17.50;99.90;;;;;;5060944;28;20204;-87
2021/06/07 05:22:48;;;;;;;2.40;2.10;;;17.60;99.90;;;;;;5079981;28;20206;-89
2021/06/07 05:25:15;;;;;;;1.67;1.57;;;17.50;99.90;;;;;;5078002;28;20211;-87
2021/06/07 05:27:41;;;;;;;2.80;1.53;;;18.70;99.90;;;;;;5065031;28;20219;-88
2021/06/07 05:30:08;;;;;;;1.40;1.30;;;20.70;99.90;;;;;;5063187;28;20249;-90
2021/06/07 05:32:34;;;;;;;4.37;1.77;;;22.20;99.90;;;;;;5060934;28;20207;-88
2021/06/07 05:35:00;;;;;;;1.90;1.37;;;23.40;99.90;;;;;;5060962;28;20755;-87
2021/06/07 05:37:26;;;;;;;1.20;1.10;;;23.60;99.90;;;;;;5043382;28;20247;-88
2021/06/07 05:39:52;;;;;;;1.00;1.00;;;23.10;99.90;;;;;;5043963;28;20259;-88
2021/06/07 05:42:18;;;;;;;1.50;1.40;;;24.10;99.90;;;;;;5079753;28;20703;-89
2021/06/07 05:44:44;;;;;;;1.40;1.30;;;24.20;99.90;;;;;;5078308;28;20209;-87
2021/06/07 05:47:10;;;;;;;1.20;1.10;;;24.30;99.90;;;;;;5062024;28;20591;-86
2021/06/07 05:49:38;;;;;;;1.87;1.33;;;24.50;99.90;;;;;;5058735;28;20224;-89
2021/06/07 05:52:09;;;;;;;1.70;1.10;;;23.80;99.90;;;;;;5061035;28;20208;-88
2021/06/07 05:54:36;;;;;;;1.38;1.27;;;24.20;99.90;;;;;;5062000;28;20644;-88
2021/06/07 05:57:03;;;;;;;1.80;1.33;;;23.90;99.90;;;;;;5045172;28;20191;-88
2021/06/07 05:59:29;;;;;;;2.38;1.38;;;24.40;99.90;;;;;;5059565;28;21083;-89
2021/06/07 06:01:55;;;;;;;1.42;1.33;;;24.30;99.90;;;;;;5074167;28;20228;-87
2021/06/07 06:04:22;;;;;;;1.15;1.08;;;25.40;99.90;;;;;;5078172;28;20789;-88
2021/06/07 06:06:49;;;;;;;1.48;1.38;;;26.10;99.90;;;;;;5075475;28;20282;-88
2021/06/07 06:09:15;;;;;;;1.10;1.10;;;27.00;99.90;;;;;;5095035;28;20190;-87
2021/06/07 06:11:41;;;;;;;1.55;1.33;;;26.30;99.90;;;;;;5058978;28;20580;-87
2021/06/07 06:14:08;;;;;;;1.52;1.38;;;25.50;99.90;;;;;;5096241;28;20230;-89
2021/06/07 06:16:34;;;;;;;1.30;1.20;;;24.70;99.90;;;;;;5077510;28;20216;-87
2021/06/07 06:18:59;;;;;;;1.23;1.13;;;24.00;99.90;;;;;;5058755;28;20220;-90
2021/06/07 06:21:27;;;;;;;1.80;1.40;;;23.80;99.90;;;;;;5059217;28;20218;-89
2021/06/07 06:23:55;;;;;;;1.10;1.10;;;24.30;99.90;;;;;;5045077;28;20199;-87
2021/06/07 06:26:21;;;;;;;1.08;1.08;;;24.00;99.90;;;;;;5076202;28;20703;-90
2021/06/07 06:28:48;;;;;;;1.40;1.30;;;23.10;99.90;;;;;;5062044;28;20219;-91
2021/06/07 06:31:15;;;;;;;1.10;1.10;;;25.20;99.90;;;;;;5077564;28;20212;-90
2021/06/07 06:33:41;;;;;;;1.90;1.30;;;24.80;99.90;;;;;;5043290;28;21617;-89
2021/06/07 06:36:07;;;;;;;1.52;1.42;;;24.60;99.90;;;;;;5059084;28;20184;-90
2021/06/07 06:38:34;;;;;;;1.58;1.20;;;25.10;99.90;;;;;;5075861;28;20287;-85
2021/06/07 06:40:59;;;;;;;1.40;1.30;;;24.90;99.90;;;;;;5075175;28;20224;-89
2021/06/07 06:43:26;;;;;;;1.35;1.25;;;25.80;99.90;;;;;;5039956;28;20213;-86
2021/06/07 06:45:52;;;;;;;0.85;0.85;;;26.20;99.90;;;;;;5058021;28;20243;-87
2021/06/07 06:48:18;;;;;;;1.67;1.20;;;25.40;99.90;;;;;;5095909;28;20239;-86
2021/06/07 06:50:44;;;;;;;2.60;1.30;;;25.70;99.90;;;;;;5074152;28;20739;-88
2021/06/07 06:53:13;;;;;;;2.58;1.75;;;27.40;99.90;;;;;;5075023;28;20321;-88
2021/06/07 06:55:40;;;;;;;1.35;1.25;;;28.10;99.90;;;;;;5074789;28;20310;-90
2021/06/07 06:58:09;;;;;;;1.60;1.50;;;26.50;99.90;;;;;;5042830;28;20216;-89
2021/06/07 07:00:36;;;;;;;1.95;1.17;;;26.30;99.90;;;;;;5060067;28;20230;-90
2021/06/07 07:03:04;;;;;;;2.08;1.60;;;25.30;99.90;;;;;;5093873;28;20180;-87
2021/06/07 07:05:30;;;;;;;2.97;1.80;;;25.90;99.90;;;;;;5058976;28;21254;-87
2021/06/07 07:07:55;;;;;;;8.95;1.83;;;26.00;99.90;;;;;;5042870;28;20226;-89
2021/06/07 07:10:21;;;;;;;3.42;1.80;;;26.10;99.90;;;;;;5056857;28;20580;-87
2021/06/07 07:12:48;;;;;;;1.38;1.27;;;27.80;99.90;;;;;;5041447;28;20223;-88
2021/06/07 07:15:13;;;;;;;2.05;1.50;;;27.40;99.90;;;;;;5078967;28;20653;-87
2021/06/07 07:17:40;;;;;;;1.60;1.50;;;26.50;99.90;;;;;;5074742;28;20227;-88
2021/06/07 07:20:06;;;;;;;2.00;1.38;;;26.00;99.90;;;;;;5060099;28;20204;-88
2021/06/07 07:22:33;;;;;;;1.25;1.23;;;27.40;99.90;;;;;;5077081;28;20255;-87
2021/06/07 07:24:59;;;;;;;3.42;1.40;;;26.20;99.90;;;;;;5058881;28;20238;-88
2021/06/07 07:27:24;;;;;;;7.07;1.90;;;25.00;99.90;;;;;;5056162;28;20208;-87
2021/06/07 07:29:50;;;;;;;1.70;1.60;;;24.90;99.90;;;;;;5043161;28;20230;-87
2021/06/07 07:32:16;;;;;;;1.55;1.30;;;26.10;99.90;;;;;;5059667;28;20215;-87
2021/06/07 07:34:42;;;;;;;1.40;1.30;;;25.70;99.90;;;;;;5060557;28;20208;-87
2021/06/07 07:37:09;;;;;;;3.53;1.52;;;25.20;99.90;;;;;;5057743;28;20216;-86
2021/06/07 07:39:37;;;;;;;1.65;1.55;;;25.70;99.90;;;;;;5056543;28;20217;-89
2021/06/07 07:42:04;;;;;;;2.08;1.80;;;26.10;99.90;;;;;;5062860;28;20682;-87
2021/06/07 07:44:29;;;;;;;1.85;1.70;;;25.80;99.90;;;;;;5046383;28;20660;-89
2021/06/07 07:46:55;;;;;;;1.67;1.48;;;25.30;99.90;;;;;;5043924;28;20217;-87
2021/06/07 07:49:21;;;;;;;3.35;1.70;;;24.70;99.90;;;;;;5068023;28;20260;-85
2021/06/07 07:51:48;;;;;;;2.00;1.80;;;23.60;99.90;;;;;;5048994;28;20232;-86
2021/06/07 07:54:14;;;;;;;1.85;1.75;;;23.40;99.90;;;;;;5066040;28;20211;-87
2021/06/07 07:56:40;;;;;;;2.65;1.77;;;23.10;99.90;;;;;;5041591;28;20807;-89
2021/06/07 07:59:07;;;;;;;1.60;1.45;;;23.20;99.90;;;;;;5048609;28;20450;-87
2021/06/07 08:01:33;;;;;;;5.78;2.05;;;23.40;99.90;;;;;;5048306;28;20228;-89
2021/06/07 08:04:00;;;;;;;1.63;1.48;;;23.10;99.90;;;;;;5065601;28;20279;-90
2021/06/07 08:06:26;;;;;;;1.88;1.77;;;22.20;99.90;;;;;;5065171;28;20181;-87
2021/06/07 08:08:52;;;;;;;2.95;1.80;;;22.00;99.90;;;;;;5049345;28;20276;-86
2021/06/07 08:11:19;;;;;;;2.08;1.90;;;21.90;99.90;;;;;;5064604;28;20583;-86
2021/06/07 08:13:45;;;;;;;1.83;1.73;;;22.20;99.90;;;;;;5041319;28;20223;-89
2021/06/07 08:16:11;;;;;;;1.80;1.67;;;22.00;99.90;;;;;;5030768;28;20213;-86
2021/06/07 08:18:37;;;;;;;2.90;1.80;;;22.50;99.90;;;;;;5031327;28;20188;-87
2021/06/07 08:21:03;;;;;;;1.75;1.65;;;22.70;99.90;;;;;;5049758;28;20267;-89
2021/06/07 08:23:28;;;;;;;1.60;1.48;;;22.10;99.90;;;;;;5065221;28;20213;-87
2021/06/07 08:25:54;;;;;;;1.83;1.63;;;21.70;99.90;;;;;;5047713;28;20308;-85
2021/06/07 08:28:20;;;;;;;1.55;1.45;;;21.10;99.90;;;;;;5063189;28;20231;-86
2021/06/07 08:30:46;;;;;;;1.45;1.35;;;22.10;99.90;;;;;;5047365;28;20296;-86
2021/06/07 08:33:11;;;;;;;3.83;1.63;;;21.80;99.90;;;;;;5032483;28;20221;-85
2021/06/07 08:35:38;;;;;;;1.98;1.77;;;22.20;99.90;;;;;;5047922;28;20235;-87
2021/06/07 08:38:05;;;;;;;4.88;1.80;;;22.20;99.90;;;;;;5046620;28;20209;-85
2021/06/07 08:40:31;;;;;;;2.10;1.90;;;23.00;99.90;;;;;;5046793;28;20229;-87
2021/06/07 08:42:57;;;;;;;2.22;2.03;;;22.20;99.90;;;;;;5046687;28;20255;-87
2021/06/07 08:45:24;;;;;;;1.70;1.60;;;22.10;99.90;;;;;;5063834;28;20174;-86
2021/06/07 08:47:51;;;;;;;1.83;1.73;;;21.60;99.90;;;;;;5064943;28;20178;-86
2021/06/07 08:50:21;;;;;;;2.13;1.55;;;22.60;99.90;;;;;;5047396;28;20588;-86
2021/06/07 08:52:47;;;;;;;1.73;1.63;;;21.70;99.90;;;;;;5062253;28;20296;-86
2021/06/07 08:55:18;;;;;;;2.08;1.88;;;22.40;99.90;;;;;;5046978;28;20288;-88
2021/06/07 08:57:49;;;;;;;1.83;1.73;;;23.20;99.90;;;;;;5063816;28;20230;-87
2021/06/07 09:00:27;;;;;;;2.20;2.00;;;22.90;99.90;;;;;;5065416;28;20169;-86
2021/06/07 09:03:06;;;;;;;2.33;1.77;;;22.90;99.90;;;;;;5064728;28;20213;-86
2021/06/07 09:05:33;;;;;;;1.98;1.52;;;23.10;99.90;;;;;;5063478;28;20216;-88
2021/06/07 09:08:04;;;;;;;2.08;1.88;;;22.90;99.90;;;;;;5047403;28;20372;-87
2021/06/07 09:10:33;;;;;;;2.13;1.63;;;22.20;99.90;;;;;;5063459;28;20205;-88
2021/06/07 09:13:04;;;;;;;2.90;1.92;;;22.90;99.90;;;;;;5063106;28;20213;-87
2021/06/07 09:15:53;;;;;;;2.65;1.88;;;22.80;99.90;;;;;;5062723;28;20288;-88
2021/06/07 09:18:33;;;;;;;1.90;1.70;;;22.70;99.90;;;;;;5042030;28;20210;-88
2021/06/07 09:21:24;;;;;;;2.00;1.80;;;23.10;99.90;;;;;;5063351;28;20232;-88
2021/06/07 09:24:03;;;;;;;2.30;1.80;;;23.60;99.90;;;;;;5064507;28;20698;-88
2021/06/07 09:26:38;;;;;;;1.80;1.70;;;23.70;99.90;;;;;;5039139;28;20228;-89
2021/06/07 09:29:06;;;;;;;3.83;2.15;;;22.20;99.90;;;;;;5062770;28;20209;-88
2021/06/07 09:31:35;;;;;;;3.45;2.05;;;23.30;99.90;;;;;;5062856;28;20210;-88
2021/06/07 09:34:06;;;;;;;2.38;2.00;;;23.70;99.90;;;;;;5063933;28;20213;-88
2021/06/07 09:36:40;;;;;;;2.42;2.20;;;24.40;99.90;;;;;;5063653;28;20178;-89
2021/06/07 09:39:23;;;;;;;3.72;3.30;;;22.70;99.90;;;;;;5065531;28;21030;-89
2021/06/07 09:41:58;;;;;;;2.17;1.90;;;23.80;99.90;;;;;;5063087;28;20232;-88
2021/06/07 09:44:48;;;;;;;5.00;3.20;;;24.20;99.90;;;;;;5064130;28;20209;-87
2021/06/07 09:47:23;;;;;;;2.90;2.70;;;24.30;99.90;;;;;;5063421;28;20576;-86
2021/06/07 09:50:04;;;;;;;5.07;2.97;;;24.70;99.90;;;;;;5062894;28;20317;-89
2021/06/07 09:52:31;;;;;;;3.28;3.00;;;25.00;99.90;;;;;;5062300;28;20225;-88
2021/06/07 09:55:21;;;;;;;1.83;1.73;;;24.30;99.90;;;;;;5062138;28;20755;-87
2021/06/07 09:57:51;;;;;;;3.80;3.47;;;23.30;99.90;;;;;;5061337;28;20256;-87
2021/06/07 10:00:40;;;;;;;4.68;2.85;;;22.80;99.90;;;;;;5063130;28;20181;-87
2021/06/07 10:03:28;;;;;;;4.32;3.10;;;23.60;99.90;;;;;;5061669;28;20244;-91
2021/06/07 10:06:00;;;;;;;2.83;2.45;;;23.60;99.90;;;;;;5062399;28;20248;-88
2021/06/07 10:08:42;;;;;;;3.65;3.30;;;24.20;99.90;;;;;;5061949;28;20217;-90
2021/06/07 10:11:20;;;;;;;5.15;3.53;;;22.90;99.90;;;;;;5038509;28;20221;-90
2021/06/07 10:13:47;;;;;;;4.28;3.88;;;24.00;99.90;;;;;;5062423;28;20220;-90
2021/06/07 10:16:13;;;;;;;4.93;4.43;;;23.70;99.90;;;;;;5062056;28;20223;-90
2021/06/07 10:18:41;;;;;;;3.92;3.53;;;23.50;99.90;;;;;;5045758;28;20208;-86
2021/06/07 10:21:10;;;;;;;4.13;3.42;;;23.20;99.90;;;;;;5047224;28;20258;-87
2021/06/07 10:23:39;;;;;;;5.25;3.47;;;22.50;99.90;;;;;;5045823;28;20205;-87
2021/06/07 10:26:07;;;;;;;4.68;3.13;;;22.60;99.90;;;;;;5028701;28;20749;-87
2021/06/07 10:28:36;;;;;;;5.50;4.72;;;22.20;99.90;;;;;;5062238;28;20262;-92
2021/06/07 10:31:14;;;;;;;6.28;4.28;;;21.90;99.90;;;;;;5062314;28;20244;-90
2021/06/07 10:33:42;;;;;;;4.28;3.83;;;22.20;99.90;;;;;;5063247;28;20188;-89
2021/06/07 10:36:27;;;;;;;7.70;5.15;;;22.00;99.90;;;;;;5039180;28;20194;-89
2021/06/07 10:39:13;;;;;;;6.18;4.93;;;21.80;99.90;;;;;;5062765;28;20224;-90
2021/06/07 10:41:40;;;;;;;6.03;4.85;;;22.20;99.90;;;;;;5045605;28;20225;-88
2021/06/07 10:44:07;;;;;;;5.88;5.22;;;22.60;99.90;;;;;;5044951;28;20292;-86
2021/06/07 10:46:43;;;;;;;6.00;4.75;;;22.30;99.90;;;;;;5044191;28;20556;-88
2021/06/07 10:49:42;;;;;;;7.53;5.43;;;22.20;99.90;;;;;;5062013;28;20658;-87
2021/06/07 10:52:12;;;;;;;5.43;4.80;;;21.30;99.90;;;;;;5051000;28;20225;-87
2021/06/07 10:54:41;;;;;;;6.13;4.18;;;21.30;99.90;;;;;;5061383;28;20193;-87
2021/06/07 10:57:25;;;;;;;6.10;4.38;;;21.60;99.90;;;;;;5063692;28;20181;-88
2021/06/07 10:59:53;;;;;;;6.80;5.43;;;21.60;99.90;;;;;;5061610;28;20244;-88
2021/06/07 11:02:20;;;;;;;8.13;5.68;;;22.80;99.90;;;;;;5060930;28;20245;-86
2021/06/07 11:04:59;;;;;;;7.78;6.40;;;22.00;99.90;;;;;;5027154;28;20219;-86
2021/06/07 11:07:24;;;;;;;6.68;5.78;;;21.40;99.90;;;;;;5061319;28;20243;-86
2021/06/07 11:10:09;;;;;;;6.07;4.68;;;21.60;99.90;;;;;;5028722;28;20225;-87
2021/06/07 11:12:36;;;;;;;6.07;5.47;;;21.70;99.90;;;;;;5061933;28;20599;-86
2021/06/07 11:15:13;;;;;;;5.75;4.97;;;22.10;99.90;;;;;;5043504;28;20235;-87
2021/06/07 11:17:40;;;;;;;5.82;4.35;;;21.70;99.90;;;;;;5060264;28;20244;-87
2021/06/07 11:20:06;;;;;;;4.82;4.32;;;21.70;99.90;;;;;;5045208;28;20711;-86
2021/06/07 11:23:11;;;;;;;7.13;5.55;;;22.30;99.90;;;;;;5027902;28;20228;-87
2021/06/07 11:25:48;;;;;;;7.78;6.30;;;22.70;99.90;;;;;;5060727;28;20289;-89
2021/06/07 11:28:38;;;;;;;7.38;5.40;;;21.80;99.90;;;;;;5061455;28;20238;-86
2021/06/07 11:31:25;;;;;;;6.80;4.95;;;22.10;99.90;;;;;;5028308;28;20555;-90
2021/06/07 11:33:55;;;;;;;5.53;4.65;;;22.70;99.90;;;;;;5047503;28;20720;-87
2021/06/07 11:36:41;;;;;;;7.10;6.35;;;22.40;99.90;;;;;;5064045;28;20196;-90
2021/06/07 11:39:10;;;;;;;6.88;5.90;;;22.30;99.90;;;;;;5064216;28;20546;-87
2021/06/07 11:41:42;;;;;;;5.30;4.60;;;21.70;99.90;;;;;;5062659;28;20714;-88
2021/06/07 11:44:08;;;;;;;5.88;4.80;;;21.40;99.90;;;;;;5063394;28;20231;-87
2021/06/07 11:46:34;;;;;;;7.22;4.93;;;21.50;99.90;;;;;;5029111;28;20291;-86
2021/06/07 11:49:08;;;;;;;6.57;5.03;;;21.20;99.90;;;;;;5062173;28;20308;-86
2021/06/07 11:51:36;;;;;;;9.13;6.03;;;21.00;99.90;;;;;;5054747;28;20207;-85
2021/06/07 11:54:27;;;;;;;9.57;6.67;;;20.70;99.90;;;;;;5063884;28;20483;-86
2021/06/07 11:56:57;;;;;;;7.70;5.20;;;20.80;99.90;;;;;;5062384;28;20588;-86
2021/06/07 11:59:29;;;;;;;8.47;5.57;;;20.80;99.90;;;;;;5045700;28;20572;-88
2021/06/07 12:01:55;;;;;;;6.20;4.57;;;20.80;99.90;;;;;;5062535;28;20282;-85
2021/06/07 12:04:30;;;;;;;8.60;5.40;;;20.80;99.90;;;;;;5062368;28;20217;-85
2021/06/07 12:07:04;;;;;;;6.13;4.73;;;20.80;99.90;;;;;;5060966;28;20216;-85
2021/06/07 12:09:31;;;;;;;8.27;5.03;;;21.10;99.90;;;;;;5060986;28;20185;-85
2021/06/07 12:11:57;;;;;;;10.20;6.27;;;20.90;99.90;;;;;;5045383;28;20190;-87
2021/06/07 12:14:30;;;;;;;6.00;5.20;;;21.20;99.90;;;;;;5045185;28;20226;-86
2021/06/07 12:17:08;;;;;;;5.50;5.00;;;21.00;99.90;;;;;;5059510;28;20217;-87
2021/06/07 12:19:41;;;;;;;6.43;4.80;;;20.80;99.90;;;;;;5059782;28;20928;-87
2021/06/07 12:22:24;;;;;;;10.23;6.70;;;20.90;99.90;;;;;;5059091;28;21649;-87
2021/06/07 12:28:28;;;;;;;6.27;5.23;;;21.20;99.90;;;;;;5065138;28;20225;-89
2021/06/07 12:30:56;;;;;;;8.53;6.07;;;21.10;99.90;;;;;;5063162;28;20251;-86
2021/06/07 12:33:36;;;;;;;7.03;5.40;;;21.10;99.90;;;;;;5065743;28;20211;-88
2021/06/07 12:36:04;;;;;;;9.63;6.00;;;21.30;99.90;;;;;;5066514;28;20193;-89
2021/06/07 12:38:31;;;;;;;7.87;5.90;;;20.90;99.90;;;;;;5048146;28;20857;-89
2021/06/07 12:40:59;;;;;;;8.90;6.07;;;20.90;99.90;;;;;;5049337;28;20239;-89
2021/06/07 12:43:32;;;;;;;8.83;6.70;;;20.80;99.90;;;;;;5065653;28;20225;-90
2021/06/07 12:46:03;;;;;;;11.10;7.07;;;20.60;99.90;;;;;;5040290;28;20252;-88
2021/06/07 12:48:41;;;;;;;10.17;7.00;;;20.60;99.90;;;;;;5062718;28;20174;-90
2021/06/07 12:51:12;;;;;;;12.17;7.80;;;20.10;99.90;;;;;;5065561;28;20634;-88
2021/06/07 12:53:49;;;;;;;8.67;6.93;;;20.40;99.90;;;;;;5078143;28;20215;-89
2021/06/07 12:56:24;;;;;;;9.77;6.30;;;20.40;99.90;;;;;;5079577;28;20604;-88
2021/06/07 12:58:52;;;;;;;8.73;5.97;;;20.90;99.90;;;;;;5079354;28;20272;-88